createdAt,value
2023-05-05T00:00:21.636Z,4.10
2023-05-05T00:01:18.185Z,4.72
2023-05-05T00:02:14.840Z,4.68
2023-05-05T00:03:11.483Z,4.80
2023-05-05T00:04:08.169Z,4.68
2023-05-05T00:05:05.301Z,4.72
2023-05-05T00:06:02.100Z,4.75
2023-05-05T00:06:58.733Z,5.28
2023-05-05T00:07:55.351Z,5.40
2023-05-05T00:08:52.012Z,5.38
2023-05-05T00:09:48.608Z,5.40
2023-05-05T00:10:46.015Z,5.13
2023-05-05T00:11:42.603Z,5.85
2023-05-05T00:12:39.180Z,5.43
2023-05-05T00:13:35.948Z,5.10
2023-05-05T00:14:32.741Z,5.40
2023-05-05T00:15:29.379Z,6.13
2023-05-05T00:16:26.080Z,6.00
2023-05-05T00:17:23.201Z,6.80
2023-05-05T00:18:21.201Z,7.35
2023-05-05T00:19:17.886Z,6.38
2023-05-05T00:20:14.463Z,6.38
2023-05-05T00:21:11.121Z,6.70
2023-05-05T00:22:07.800Z,7.32
2023-05-05T00:23:04.631Z,6.85
2023-05-05T00:24:01.280Z,7.22
2023-05-05T00:24:57.840Z,6.63
2023-05-05T00:25:54.474Z,7.20
2023-05-05T00:26:51.308Z,6.97
2023-05-05T00:27:47.930Z,7.38
2023-05-05T00:28:44.509Z,7.45
2023-05-05T00:29:41.106Z,8.23
2023-05-05T00:30:40.162Z,7.43
2023-05-05T00:31:37.809Z,6.85
2023-05-05T00:32:34.602Z,8.07
2023-05-05T00:33:31.310Z,7.40
2023-05-05T00:34:27.902Z,7.85
2023-05-05T00:35:24.741Z,6.88
2023-05-05T00:36:21.428Z,7.25
2023-05-05T00:37:17.967Z,8.20
2023-05-05T00:38:14.611Z,7.55
2023-05-05T00:39:11.326Z,7.95
2023-05-05T00:40:09.511Z,7.53
2023-05-05T00:41:06.254Z,8.02
2023-05-05T00:42:02.933Z,8.25
2023-05-05T00:43:02.886Z,8.43
2023-05-05T00:43:59.606Z,7.97
2023-05-05T00:44:56.162Z,8.30
2023-05-05T00:46:02.052Z,7.68
2023-05-05T00:46:58.989Z,8.40
2023-05-05T00:47:58.939Z,8.90
2023-05-05T00:48:56.614Z,9.05
2023-05-05T00:49:53.293Z,9.23
2023-05-05T00:50:50.143Z,8.93
2023-05-05T00:51:46.935Z,9.02
2023-05-05T00:52:43.582Z,9.07
2023-05-05T00:53:43.046Z,8.65
2023-05-05T00:54:40.144Z,9.60
2023-05-05T00:55:36.921Z,8.20
2023-05-05T00:56:33.523Z,8.00
2023-05-05T00:57:30.502Z,8.77
2023-05-05T00:58:29.298Z,7.70
2023-05-05T00:59:27.546Z,7.60
2023-05-05T01:00:24.843Z,7.80
2023-05-05T01:01:21.475Z,6.60
2023-05-05T01:02:18.996Z,5.85
2023-05-05T01:03:15.825Z,6.40
2023-05-05T01:04:12.516Z,6.65
2023-05-05T01:05:10.202Z,6.45
2023-05-05T01:06:10.308Z,6.68
2023-05-05T01:07:27.193Z,6.32
2023-05-05T01:08:35.083Z,5.82
2023-05-05T01:09:34.435Z,6.05
2023-05-05T01:10:52.414Z,5.32
2023-05-05T01:12:36.226Z,5.43
2023-05-05T01:13:50.019Z,5.85
2023-05-05T01:15:15.801Z,4.95
2023-05-05T01:16:18.622Z,4.90
2023-05-05T01:17:21.989Z,4.95
2023-05-05T01:18:24.544Z,4.93
2023-05-05T01:20:28.528Z,4.35
2023-05-05T01:21:31.683Z,4.10
2023-05-05T01:22:42.499Z,4.47
2023-05-05T01:24:16.937Z,4.30
2023-05-05T01:25:35.218Z,4.53
2023-05-05T01:27:04.703Z,4.43
2023-05-05T01:28:28.006Z,4.45
2023-05-05T01:29:41.313Z,4.97
2023-05-05T01:31:06.082Z,5.25
2023-05-05T01:32:13.085Z,5.47
2023-05-05T01:33:15.488Z,5.35
2023-05-05T01:34:16.669Z,5.22
2023-05-05T01:35:45.878Z,5.72
2023-05-05T01:36:49.677Z,5.85
2023-05-05T01:37:51.754Z,5.72
2023-05-05T01:38:55.504Z,6.20
2023-05-05T01:39:57.651Z,5.82
2023-05-05T01:41:17.636Z,6.13
2023-05-05T01:42:15.158Z,5.30
2023-05-05T01:43:15.314Z,5.22
2023-05-05T01:44:14.819Z,5.95
2023-05-05T01:45:13.060Z,5.43
2023-05-05T01:46:11.188Z,6.28
2023-05-05T01:47:09.640Z,4.72
2023-05-05T01:48:08.225Z,5.97
2023-05-05T01:49:07.291Z,6.00
2023-05-05T01:50:06.546Z,5.40
2023-05-05T01:51:03.960Z,6.00
2023-05-05T01:52:03.757Z,5.88
2023-05-05T01:53:03.296Z,6.03
2023-05-05T01:54:01.666Z,5.25
2023-05-05T01:54:59.263Z,5.78
2023-05-05T01:55:57.348Z,5.72
2023-05-05T01:56:57.459Z,5.55
2023-05-05T01:57:58.760Z,6.15
2023-05-05T01:58:57.303Z,5.88
2023-05-05T01:59:55.616Z,5.88
2023-05-05T02:00:53.846Z,5.85
2023-05-05T02:01:52.142Z,6.03
2023-05-05T02:02:50.389Z,5.85
2023-05-05T02:03:48.520Z,5.93
2023-05-05T02:04:46.554Z,5.93
2023-05-05T02:05:43.940Z,6.13
2023-05-05T02:06:41.747Z,6.72
2023-05-05T02:07:39.241Z,6.07
2023-05-05T02:08:37.977Z,6.65
2023-05-05T02:09:36.328Z,6.65
2023-05-05T02:10:33.555Z,6.97
2023-05-05T02:11:30.936Z,6.80
2023-05-05T02:12:29.964Z,6.78
2023-05-05T02:13:29.621Z,6.85
2023-05-05T02:14:28.801Z,6.30
2023-05-05T02:15:27.061Z,6.72
2023-05-05T02:16:24.854Z,6.40
2023-05-05T02:17:22.994Z,6.18
2023-05-05T02:18:21.199Z,6.63
2023-05-05T02:19:19.979Z,6.85
2023-05-05T02:20:18.430Z,6.10
2023-05-05T02:21:18.068Z,6.00
2023-05-05T02:22:16.595Z,5.82
2023-05-05T02:23:13.323Z,6.10
2023-05-05T02:24:10.355Z,5.65
2023-05-05T02:25:07.659Z,5.50
2023-05-05T02:26:07.951Z,5.63
2023-05-05T02:27:07.545Z,5.07
2023-05-05T02:28:12.461Z,5.32
2023-05-05T02:29:24.393Z,5.15
2023-05-05T02:30:22.498Z,4.75
2023-05-05T02:31:21.254Z,5.20
2023-05-05T02:32:31.545Z,4.50
2023-05-05T02:33:32.213Z,4.80
2023-05-05T02:34:32.925Z,3.97
2023-05-05T02:35:37.902Z,4.00
2023-05-05T02:36:39.401Z,4.25
2023-05-05T02:37:38.265Z,4.25
2023-05-05T02:38:40.352Z,3.95
2023-05-05T02:39:58.383Z,4.25
2023-05-05T02:40:58.097Z,4.20
2023-05-05T02:41:57.288Z,3.80
2023-05-05T02:42:57.406Z,4.00
2023-05-05T02:43:55.180Z,4.20
2023-05-05T02:44:53.725Z,4.10
2023-05-05T02:45:50.556Z,4.03
2023-05-05T02:46:47.579Z,4.00
2023-05-05T02:47:44.309Z,4.05
2023-05-05T02:48:40.931Z,4.00
2023-05-05T02:49:37.461Z,3.53
2023-05-05T02:50:34.160Z,3.60
2023-05-05T02:51:30.766Z,4.10
2023-05-05T02:52:27.626Z,4.40
2023-05-05T02:53:26.944Z,3.63
2023-05-05T02:54:24.083Z,3.65
2023-05-05T02:55:21.312Z,3.88
2023-05-05T02:56:39.966Z,3.92
2023-05-05T02:58:06.726Z,3.88
2023-05-05T02:59:10.165Z,3.63
2023-05-05T03:00:17.619Z,3.60
2023-05-05T03:01:33.020Z,3.17
2023-05-05T03:02:45.306Z,3.72
2023-05-05T03:03:52.455Z,3.78
2023-05-05T03:05:03.589Z,3.88
2023-05-05T03:06:07.467Z,4.13
2023-05-05T03:07:11.063Z,4.38
2023-05-05T03:08:33.453Z,3.90
2023-05-05T03:10:07.476Z,4.13
2023-05-05T03:12:03.992Z,3.70
2023-05-05T03:13:03.455Z,4.22
2023-05-05T03:14:08.856Z,3.95
2023-05-05T03:15:09.388Z,4.22
2023-05-05T03:16:08.330Z,3.45
2023-05-05T03:17:06.833Z,4.03
2023-05-05T03:18:04.355Z,3.50
2023-05-05T03:19:02.658Z,3.55
2023-05-05T03:20:02.257Z,3.63
2023-05-05T03:21:08.607Z,3.08
2023-05-05T03:22:05.283Z,3.13
2023-05-05T03:23:02.779Z,3.20
2023-05-05T03:23:59.794Z,2.97
2023-05-05T03:24:56.382Z,2.90
2023-05-05T03:25:53.015Z,3.70
2023-05-05T03:26:50.383Z,3.33
2023-05-05T03:27:46.931Z,3.35
2023-05-05T03:28:43.557Z,3.55
2023-05-05T03:29:40.362Z,3.08
2023-05-05T03:30:37.239Z,3.42
2023-05-05T03:31:34.165Z,3.25
2023-05-05T03:32:31.390Z,3.15
2023-05-05T03:33:27.950Z,3.30
2023-05-05T03:34:24.576Z,3.20
2023-05-05T03:35:21.300Z,2.92
2023-05-05T03:36:17.928Z,3.20
2023-05-05T03:37:14.567Z,3.33
2023-05-05T03:38:11.124Z,3.30
2023-05-05T03:39:08.132Z,3.28
2023-05-05T03:40:05.226Z,4.10
2023-05-05T03:41:03.693Z,3.53
2023-05-05T03:42:00.381Z,3.45
2023-05-05T03:42:57.035Z,3.40
2023-05-05T03:43:54.144Z,4.05
2023-05-05T03:44:53.335Z,4.38
2023-05-05T03:45:50.671Z,4.50
2023-05-05T03:46:47.308Z,5.20
2023-05-05T03:47:43.895Z,4.95
2023-05-05T03:48:41.845Z,4.68
2023-05-05T03:49:38.453Z,4.32
2023-05-05T03:50:35.135Z,4.13
2023-05-05T03:51:32.249Z,4.38
2023-05-05T03:52:29.123Z,4.63
2023-05-05T03:53:25.794Z,4.50
2023-05-05T03:54:22.361Z,5.20
2023-05-05T03:55:19.176Z,4.30
2023-05-05T03:56:15.863Z,4.38
2023-05-05T03:57:12.576Z,4.45
2023-05-05T03:58:09.185Z,4.30
2023-05-05T03:59:06.282Z,4.88
2023-05-05T04:00:03.036Z,4.18
2023-05-05T04:00:59.606Z,4.40
2023-05-05T04:01:56.841Z,4.03
2023-05-05T04:02:53.582Z,4.40
2023-05-05T04:03:50.289Z,4.90
2023-05-05T04:04:46.857Z,4.43
2023-05-05T04:05:43.594Z,4.43
2023-05-05T04:06:40.160Z,4.43
2023-05-05T04:07:36.756Z,4.28
2023-05-05T04:08:33.490Z,4.75
2023-05-05T04:09:30.084Z,4.10
2023-05-05T04:10:27.247Z,4.70
2023-05-05T04:11:23.869Z,4.30
2023-05-05T04:12:20.562Z,4.80
2023-05-05T04:13:17.206Z,4.22
2023-05-05T04:14:13.806Z,4.38
2023-05-05T04:15:10.777Z,3.78
2023-05-05T04:16:08.849Z,4.20
2023-05-05T04:17:06.503Z,4.15
2023-05-05T04:18:03.123Z,4.60
2023-05-05T04:18:59.805Z,4.05
2023-05-05T04:19:56.658Z,3.55
2023-05-05T04:20:53.424Z,3.78
2023-05-05T04:21:51.163Z,4.32
2023-05-05T04:22:48.169Z,3.63
2023-05-05T04:23:44.739Z,3.38
2023-05-05T04:24:41.557Z,3.55
2023-05-05T04:25:38.097Z,3.58
2023-05-05T04:26:34.819Z,3.63
2023-05-05T04:27:31.562Z,3.33
2023-05-05T04:28:28.233Z,3.28
2023-05-05T04:29:25.171Z,3.60
2023-05-05T04:30:21.761Z,3.00
2023-05-05T04:31:18.481Z,3.60
2023-05-05T04:32:15.116Z,3.47
2023-05-05T04:33:11.685Z,3.13
2023-05-05T04:34:08.325Z,3.13
2023-05-05T04:35:05.302Z,3.13
2023-05-05T04:36:01.984Z,3.33
2023-05-05T04:36:58.573Z,3.13
2023-05-05T04:37:55.621Z,3.05
2023-05-05T04:38:52.285Z,3.05
2023-05-05T04:39:49.179Z,3.17
2023-05-05T04:40:46.102Z,3.10
2023-05-05T04:41:42.770Z,3.50
2023-05-05T04:42:39.405Z,3.10
2023-05-05T04:43:36.092Z,2.90
2023-05-05T04:44:34.118Z,3.15
2023-05-05T04:45:30.759Z,3.28
2023-05-05T04:46:27.428Z,2.75
2023-05-05T04:47:24.155Z,2.92
2023-05-05T04:48:20.962Z,3.35
2023-05-05T04:49:17.564Z,2.85
2023-05-05T04:50:14.266Z,3.00
2023-05-05T04:51:10.881Z,2.65
2023-05-05T04:52:07.545Z,2.67
2023-05-05T04:53:04.139Z,3.17
2023-05-05T04:54:01.097Z,3.08
2023-05-05T04:54:58.153Z,2.67
2023-05-05T04:55:54.712Z,2.75
2023-05-05T04:56:51.662Z,2.92
2023-05-05T04:57:48.228Z,2.85
2023-05-05T04:58:44.881Z,2.35
2023-05-05T04:59:41.608Z,2.70
2023-05-05T05:00:38.234Z,2.10
2023-05-05T05:01:36.928Z,2.58
2023-05-05T05:02:35.155Z,2.38
2023-05-05T05:03:32.264Z,2.58
2023-05-05T05:04:29.024Z,2.85
2023-05-05T05:05:25.777Z,2.42
2023-05-05T05:06:22.416Z,2.80
2023-05-05T05:07:18.974Z,2.30
2023-05-05T05:08:16.805Z,2.50
2023-05-05T05:09:13.726Z,2.33
2023-05-05T05:10:10.711Z,2.10
2023-05-05T05:11:07.514Z,2.20
2023-05-05T05:12:04.530Z,2.65
2023-05-05T05:13:01.300Z,2.90
2023-05-05T05:13:57.976Z,3.05
2023-05-05T05:14:56.776Z,3.55
2023-05-05T05:15:53.372Z,3.20
2023-05-05T05:16:52.557Z,2.92
2023-05-05T05:17:49.257Z,2.67
2023-05-05T05:18:45.935Z,2.72
2023-05-05T05:19:42.662Z,3.13
2023-05-05T05:20:39.341Z,3.45
2023-05-05T05:21:36.244Z,3.08
2023-05-05T05:22:33.045Z,3.50
2023-05-05T05:23:29.722Z,3.20
2023-05-05T05:24:26.559Z,3.03
2023-05-05T05:25:23.894Z,2.90
2023-05-05T05:26:20.556Z,2.90
2023-05-05T05:27:17.124Z,3.33
2023-05-05T05:28:13.691Z,2.78
2023-05-05T05:29:10.278Z,3.33
2023-05-05T05:30:07.805Z,3.40
2023-05-05T05:31:05.108Z,3.15
2023-05-05T05:32:01.758Z,3.03
2023-05-05T05:32:58.524Z,2.55
2023-05-05T05:33:56.233Z,2.92
2023-05-05T05:34:52.855Z,2.80
2023-05-05T05:35:49.448Z,3.03
2023-05-05T05:36:46.188Z,2.60
2023-05-05T05:37:42.892Z,2.90
2023-05-05T05:38:39.476Z,3.30
2023-05-05T05:39:36.509Z,3.10
2023-05-05T05:40:33.217Z,3.20
2023-05-05T05:41:29.945Z,3.00
2023-05-05T05:42:26.639Z,3.20
2023-05-05T05:43:23.231Z,3.08
2023-05-05T05:44:19.894Z,2.92
2023-05-05T05:45:16.645Z,2.80
2023-05-05T05:46:13.277Z,2.90
2023-05-05T05:47:09.903Z,3.08
2023-05-05T05:48:06.801Z,3.20
2023-05-05T05:49:03.431Z,3.58
2023-05-05T05:50:00.048Z,3.33
2023-05-05T05:50:57.116Z,3.70
2023-05-05T05:51:53.696Z,3.90
2023-05-05T05:52:50.250Z,3.47
2023-05-05T05:53:46.884Z,4.00
2023-05-05T05:54:43.477Z,3.40
2023-05-05T05:55:40.087Z,3.70
2023-05-05T05:56:36.997Z,3.88
2023-05-05T05:57:33.670Z,4.18
2023-05-05T05:58:30.356Z,3.92
2023-05-05T05:59:26.925Z,4.18
2023-05-05T06:00:23.774Z,3.88
2023-05-05T06:01:20.337Z,4.13
2023-05-05T06:02:17.220Z,4.10
2023-05-05T06:03:13.962Z,4.05
2023-05-05T06:04:10.905Z,4.30
2023-05-05T06:05:07.870Z,4.18
2023-05-05T06:06:04.515Z,3.72
2023-05-05T06:07:01.123Z,4.20
2023-05-05T06:07:57.669Z,4.28
2023-05-05T06:08:54.274Z,4.38
2023-05-05T06:09:51.239Z,4.10
2023-05-05T06:10:48.291Z,4.40
2023-05-05T06:11:44.846Z,3.85
2023-05-05T06:12:41.527Z,4.07
2023-05-05T06:13:38.149Z,3.40
2023-05-05T06:14:34.903Z,3.83
2023-05-05T06:15:31.594Z,3.75
2023-05-05T06:16:28.184Z,3.22
2023-05-05T06:17:24.861Z,3.80
2023-05-05T06:18:21.522Z,3.65
2023-05-05T06:19:18.223Z,4.45
2023-05-05T06:20:14.995Z,3.80
2023-05-05T06:21:13.337Z,4.22
2023-05-05T06:22:10.035Z,5.00
2023-05-05T06:23:07.036Z,4.00
2023-05-05T06:24:03.958Z,3.92
2023-05-05T06:25:00.652Z,4.65
2023-05-05T06:25:57.306Z,3.65
2023-05-05T06:26:53.931Z,3.92
2023-05-05T06:27:50.519Z,4.78
2023-05-05T06:28:47.185Z,4.50
2023-05-05T06:29:43.786Z,3.30
2023-05-05T06:30:40.446Z,3.55
2023-05-05T06:31:37.024Z,3.38
2023-05-05T06:32:33.692Z,3.70
2023-05-05T06:33:30.563Z,2.97
2023-05-05T06:34:27.294Z,3.08
2023-05-05T06:35:24.711Z,3.20
2023-05-05T06:36:21.315Z,2.85
2023-05-05T06:37:18.048Z,3.03
2023-05-05T06:38:14.810Z,3.10
2023-05-05T06:39:12.312Z,2.65
2023-05-05T06:40:10.723Z,3.10
2023-05-05T06:41:07.546Z,3.15
2023-05-05T06:42:04.247Z,3.38
2023-05-05T06:43:00.805Z,3.08
2023-05-05T06:43:57.416Z,3.10
2023-05-05T06:44:54.501Z,3.50
2023-05-05T06:45:51.136Z,3.00
2023-05-05T06:46:47.850Z,3.90
2023-05-05T06:47:44.633Z,3.90
2023-05-05T06:48:41.306Z,3.30
2023-05-05T06:49:38.024Z,3.28
2023-05-05T06:50:34.599Z,3.33
2023-05-05T06:51:31.774Z,3.53
2023-05-05T06:52:28.420Z,3.58
2023-05-05T06:53:25.022Z,3.28
2023-05-05T06:54:21.767Z,3.50
2023-05-05T06:55:18.601Z,3.10
2023-05-05T06:56:15.427Z,3.50
2023-05-05T06:57:12.183Z,3.38
2023-05-05T06:58:08.837Z,3.33
2023-05-05T06:59:05.441Z,3.00
2023-05-05T07:00:05.914Z,2.97
2023-05-05T07:01:04.007Z,3.03
2023-05-05T07:02:00.674Z,3.03
2023-05-05T07:02:57.256Z,2.60
2023-05-05T07:03:53.990Z,2.78
2023-05-05T07:04:51.103Z,2.72
2023-05-05T07:05:47.724Z,2.67
2023-05-05T07:06:44.466Z,3.25
2023-05-05T07:07:54.648Z,2.90
2023-05-05T07:08:51.216Z,3.17
2023-05-05T07:09:47.853Z,3.10
2023-05-05T07:10:44.468Z,2.95
2023-05-05T07:11:41.229Z,2.63
2023-05-05T07:12:37.932Z,2.65
2023-05-05T07:13:34.568Z,3.03
2023-05-05T07:14:31.121Z,2.50
2023-05-05T07:15:29.656Z,2.95
2023-05-05T07:16:27.524Z,3.40
2023-05-05T07:17:24.280Z,2.15
2023-05-05T07:18:21.252Z,2.40
2023-05-05T07:19:17.991Z,2.25
2023-05-05T07:20:14.909Z,2.40
2023-05-05T07:21:11.533Z,2.60
2023-05-05T07:22:08.206Z,2.28
2023-05-05T07:23:04.867Z,2.47
2023-05-05T07:24:03.136Z,2.10
2023-05-05T07:24:59.759Z,2.33
2023-05-05T07:25:56.727Z,2.47
2023-05-05T07:26:53.391Z,2.47
2023-05-05T07:27:50.305Z,2.42
2023-05-05T07:28:46.938Z,2.15
2023-05-05T07:29:43.569Z,1.95
2023-05-05T07:30:40.194Z,2.20
2023-05-05T07:31:36.812Z,2.30
2023-05-05T07:32:33.562Z,2.40
2023-05-05T07:33:30.152Z,2.63
2023-05-05T07:34:27.614Z,2.38
2023-05-05T07:35:24.298Z,2.30
2023-05-05T07:36:21.036Z,2.13
2023-05-05T07:37:17.810Z,2.10
2023-05-05T07:38:14.411Z,2.22
2023-05-05T07:39:11.176Z,2.35
2023-05-05T07:40:08.913Z,2.20
2023-05-05T07:41:06.516Z,2.45
2023-05-05T07:42:03.161Z,2.30
2023-05-05T07:43:00.113Z,2.17
2023-05-05T07:43:56.769Z,2.38
2023-05-05T07:44:53.340Z,2.50
2023-05-05T07:45:50.042Z,2.40
2023-05-05T07:46:47.051Z,2.33
2023-05-05T07:47:43.918Z,2.30
2023-05-05T07:48:42.012Z,2.38
2023-05-05T07:49:38.729Z,2.28
2023-05-05T07:50:35.370Z,2.25
2023-05-05T07:51:34.382Z,2.40
2023-05-05T07:52:45.061Z,2.70
2023-05-05T07:53:44.767Z,2.80
2023-05-05T07:54:42.420Z,2.65
2023-05-05T07:55:39.036Z,3.17
2023-05-05T07:56:35.703Z,2.72
2023-05-05T07:57:32.330Z,2.85
2023-05-05T07:58:28.979Z,2.40
2023-05-05T07:59:25.608Z,2.67
2023-05-05T08:00:22.393Z,2.72
2023-05-05T08:01:19.238Z,2.53
2023-05-05T08:02:15.904Z,2.42
2023-05-05T08:03:13.169Z,2.40
2023-05-05T08:04:09.937Z,2.63
2023-05-05T08:05:07.676Z,2.50
2023-05-05T08:06:11.922Z,2.50
2023-05-05T08:07:09.187Z,2.58
2023-05-05T08:08:06.998Z,2.50
2023-05-05T08:09:03.706Z,2.90
2023-05-05T08:10:00.444Z,2.47
2023-05-05T08:10:56.972Z,2.58
2023-05-05T08:11:53.919Z,2.50
2023-05-05T08:12:50.690Z,2.88
2023-05-05T08:13:47.759Z,2.30
2023-05-05T08:14:44.377Z,2.60
2023-05-05T08:15:41.060Z,2.83
2023-05-05T08:16:37.809Z,2.95
2023-05-05T08:17:48.818Z,2.80
2023-05-05T08:18:45.617Z,3.25
2023-05-05T08:19:42.242Z,3.38
2023-05-05T08:20:38.889Z,3.58
2023-05-05T08:21:35.525Z,3.42
2023-05-05T08:22:32.102Z,3.45
2023-05-05T08:23:28.679Z,3.50
2023-05-05T08:24:25.322Z,3.78
2023-05-05T08:25:22.214Z,3.75
2023-05-05T08:26:18.885Z,4.03
2023-05-05T08:27:15.490Z,3.80
2023-05-05T08:28:12.088Z,4.10
2023-05-05T08:29:09.033Z,3.80
2023-05-05T08:30:06.988Z,4.25
2023-05-05T08:31:06.961Z,4.00
2023-05-05T08:32:03.767Z,4.10
2023-05-05T08:33:00.767Z,3.75
2023-05-05T08:33:57.661Z,4.07
2023-05-05T08:34:56.706Z,3.10
2023-05-05T08:35:53.317Z,3.10
2023-05-05T08:36:50.958Z,2.90
2023-05-05T08:37:47.612Z,2.60
2023-05-05T08:38:44.234Z,2.90
2023-05-05T08:39:40.987Z,2.92
2023-05-05T08:40:39.315Z,2.75
2023-05-05T08:41:36.062Z,3.10
2023-05-05T08:42:38.471Z,3.40
2023-05-05T08:43:36.574Z,3.30
2023-05-05T08:44:33.608Z,2.50
2023-05-05T08:45:30.708Z,2.63
2023-05-05T08:46:28.263Z,2.92
2023-05-05T08:47:25.127Z,3.03
2023-05-05T08:48:23.327Z,3.05
2023-05-05T08:49:21.409Z,3.00
2023-05-05T08:50:19.362Z,2.55
2023-05-05T08:51:20.034Z,3.22
2023-05-05T08:52:21.271Z,2.70
2023-05-05T08:53:26.763Z,2.83
2023-05-05T08:54:27.350Z,2.80
2023-05-05T08:55:27.760Z,3.10
2023-05-05T08:56:32.126Z,3.15
2023-05-05T08:57:36.266Z,3.20
2023-05-05T08:58:36.577Z,2.97
2023-05-05T08:59:33.672Z,3.10
2023-05-05T09:00:30.926Z,3.22
2023-05-05T09:01:27.811Z,3.00
2023-05-05T09:02:28.550Z,3.30
2023-05-05T09:03:27.106Z,3.17
2023-05-05T09:04:23.862Z,3.20
2023-05-05T09:05:20.656Z,3.25
2023-05-05T09:06:17.403Z,3.00
2023-05-05T09:07:14.030Z,3.15
2023-05-05T09:08:11.539Z,3.13
2023-05-05T09:09:09.097Z,3.03
2023-05-05T09:10:06.284Z,3.15
2023-05-05T09:11:03.092Z,3.20
2023-05-05T09:12:00.306Z,3.20
2023-05-05T09:12:57.453Z,3.03
2023-05-05T09:13:55.231Z,3.22
2023-05-05T09:14:51.942Z,2.95
2023-05-05T09:15:48.612Z,3.25
2023-05-05T09:16:45.294Z,3.00
2023-05-05T09:17:42.768Z,2.90
2023-05-05T09:18:41.181Z,3.25
2023-05-05T09:20:07.291Z,3.17
2023-05-05T09:21:22.509Z,2.80
2023-05-05T09:22:36.837Z,3.22
2023-05-05T09:23:33.500Z,3.30
2023-05-05T09:24:30.170Z,3.05
2023-05-05T09:25:26.816Z,3.20
2023-05-05T09:26:23.575Z,2.95
2023-05-05T09:27:26.154Z,2.60
2023-05-05T09:28:23.088Z,3.00
2023-05-05T09:29:20.760Z,3.13
2023-05-05T09:30:23.662Z,2.58
2023-05-05T09:31:20.861Z,2.70
2023-05-05T09:32:18.411Z,2.33
2023-05-05T09:33:29.035Z,2.20
2023-05-05T09:34:25.818Z,2.00
2023-05-05T09:35:23.401Z,2.45
2023-05-05T09:36:40.364Z,2.60
2023-05-05T09:37:38.639Z,2.63
2023-05-05T09:38:36.753Z,2.60
2023-05-05T09:39:33.424Z,2.60
2023-05-05T09:40:45.875Z,2.40
2023-05-05T09:41:44.365Z,3.33
2023-05-05T09:42:41.197Z,2.80
2023-05-05T09:43:51.979Z,2.75
2023-05-05T09:44:48.964Z,2.80
2023-05-05T09:45:46.150Z,2.22
2023-05-05T09:46:51.551Z,2.72
2023-05-05T09:47:49.462Z,3.15
2023-05-05T09:48:46.554Z,2.55
2023-05-05T09:49:43.244Z,3.20
2023-05-05T09:50:44.036Z,2.70
2023-05-05T09:51:40.893Z,2.85
2023-05-05T09:52:37.472Z,2.15
2023-05-05T09:53:42.327Z,2.63
2023-05-05T09:54:39.063Z,2.03
2023-05-05T09:55:36.129Z,1.65
2023-05-05T09:56:42.790Z,2.30
2023-05-05T09:57:39.382Z,2.03
2023-05-05T09:58:36.114Z,1.90
2023-05-05T09:59:32.787Z,1.80
2023-05-05T10:00:39.450Z,1.63
2023-05-05T10:01:36.151Z,2.15
2023-05-05T10:02:38.002Z,1.70
2023-05-05T10:03:50.634Z,2.20
2023-05-05T10:04:47.254Z,2.00
2023-05-05T10:05:52.102Z,2.15
2023-05-05T10:06:48.792Z,2.17
2023-05-05T10:07:47.418Z,2.08
2023-05-05T10:08:43.997Z,2.08
2023-05-05T10:09:40.738Z,2.20
2023-05-05T10:10:41.150Z,2.20
2023-05-05T10:11:41.053Z,1.98
2023-05-05T10:12:38.450Z,1.90
2023-05-05T10:13:37.836Z,1.90
2023-05-05T10:14:35.972Z,1.67
2023-05-05T10:15:32.556Z,1.80
2023-05-05T10:16:32.327Z,2.08
2023-05-05T10:17:33.035Z,1.92
2023-05-05T10:18:32.110Z,1.75
2023-05-05T10:19:35.042Z,1.77
2023-05-05T10:20:33.509Z,1.80
2023-05-05T10:21:34.287Z,2.10
2023-05-05T10:22:35.368Z,1.90
2023-05-05T10:23:38.403Z,1.77
2023-05-05T10:24:41.329Z,2.75
2023-05-05T10:25:59.176Z,2.63
2023-05-05T10:26:58.732Z,2.65
2023-05-05T10:27:57.984Z,2.03
2023-05-05T10:29:02.152Z,1.90
2023-05-05T10:30:04.728Z,1.90
2023-05-05T10:31:05.781Z,1.90
2023-05-05T10:33:34.087Z,2.03
2023-05-05T10:34:38.545Z,1.98
2023-05-05T10:35:40.226Z,1.63
2023-05-05T10:36:38.602Z,1.80
2023-05-05T10:37:37.822Z,1.98
2023-05-05T10:38:36.136Z,1.88
2023-05-05T10:39:34.418Z,1.60
2023-05-05T10:40:31.514Z,1.85
2023-05-05T10:41:28.816Z,1.90
2023-05-05T10:42:25.672Z,1.88
2023-05-05T10:43:23.398Z,1.80
2023-05-05T10:44:21.410Z,1.92
2023-05-05T10:45:18.183Z,1.80
2023-05-05T10:46:15.221Z,2.00
2023-05-05T10:47:12.552Z,2.30
2023-05-05T10:48:18.975Z,2.05
2023-05-05T10:49:21.654Z,2.08
2023-05-05T10:50:27.683Z,1.60
2023-05-05T10:51:50.057Z,1.70
2023-05-05T10:53:03.134Z,1.90
2023-05-05T10:55:21.124Z,1.77
2023-05-05T10:56:32.609Z,1.90
2023-05-05T10:57:31.494Z,2.20
2023-05-05T10:58:35.045Z,2.00
2023-05-05T10:59:38.138Z,1.83
2023-05-05T11:00:38.054Z,1.80
2023-05-05T11:01:36.365Z,2.10
2023-05-05T11:02:33.402Z,2.13
2023-05-05T11:03:30.341Z,1.80
2023-05-05T11:04:26.900Z,2.00
2023-05-05T11:05:23.720Z,1.77
2023-05-05T11:06:20.477Z,2.03
2023-05-05T11:07:23.822Z,1.98
2023-05-05T11:08:27.156Z,2.00
2023-05-05T11:09:28.274Z,1.92
2023-05-05T11:10:25.368Z,2.13
2023-05-05T11:12:01.950Z,1.70
2023-05-05T11:12:59.392Z,1.95
2023-05-05T11:14:24.682Z,2.00
2023-05-05T11:15:24.058Z,2.03
2023-05-05T11:16:47.507Z,1.88
2023-05-05T11:17:46.566Z,1.83
2023-05-05T11:18:46.141Z,1.90
2023-05-05T11:19:42.762Z,2.05
2023-05-05T11:20:43.560Z,2.00
2023-05-05T11:22:00.145Z,1.70
2023-05-05T11:23:02.632Z,1.90
2023-05-05T11:25:40.885Z,1.80
2023-05-05T11:26:51.586Z,1.70
2023-05-05T11:28:06.853Z,2.08
2023-05-05T11:29:04.923Z,1.70
2023-05-05T11:30:07.321Z,2.20
2023-05-05T11:32:14.371Z,1.98
2023-05-05T11:33:33.887Z,1.80
2023-05-05T11:34:31.145Z,1.95
2023-05-05T11:35:56.713Z,2.13
2023-05-05T11:37:00.312Z,1.70
2023-05-05T11:38:03.674Z,1.90
2023-05-05T11:39:11.459Z,1.80
2023-05-05T11:40:22.318Z,1.73
2023-05-05T11:41:25.455Z,1.73
2023-05-05T11:42:25.362Z,1.88
2023-05-05T11:43:21.976Z,1.70
2023-05-05T11:44:20.258Z,1.95
2023-05-05T11:45:24.593Z,2.17
2023-05-05T11:46:21.371Z,1.85
2023-05-05T11:47:17.940Z,1.98
2023-05-05T11:48:24.987Z,1.83
2023-05-05T11:49:29.457Z,1.92
2023-05-05T11:50:27.446Z,1.83
2023-05-05T11:51:24.502Z,1.80
2023-05-05T11:52:24.476Z,1.90
2023-05-05T11:53:21.060Z,2.00
2023-05-05T11:54:21.192Z,1.88
2023-05-05T11:55:22.054Z,2.13
2023-05-05T11:56:20.511Z,1.80
2023-05-05T11:57:21.334Z,1.58
2023-05-05T11:58:19.190Z,2.00
2023-05-05T11:59:16.043Z,2.08
2023-05-05T12:00:13.249Z,1.30
2023-05-05T12:01:09.997Z,1.90
2023-05-05T12:02:06.693Z,1.80
2023-05-05T12:03:04.311Z,2.00
2023-05-05T12:04:01.318Z,2.00
2023-05-05T12:04:59.540Z,1.75
2023-05-05T12:05:56.402Z,2.42
2023-05-05T12:06:53.260Z,1.83
2023-05-05T12:07:57.532Z,1.70
2023-05-05T12:08:54.117Z,1.98
2023-05-05T12:09:50.942Z,1.90
2023-05-05T12:10:48.306Z,1.98
2023-05-05T12:12:03.492Z,1.95
2023-05-05T12:13:00.139Z,2.15
2023-05-05T12:14:12.039Z,1.83
2023-05-05T12:15:09.724Z,2.25
2023-05-05T12:16:13.644Z,1.92
2023-05-05T12:17:10.320Z,2.10
2023-05-05T12:18:18.717Z,1.85
2023-05-05T12:19:15.928Z,2.00
2023-05-05T12:20:13.036Z,1.55
2023-05-05T12:21:17.736Z,1.73
2023-05-05T12:22:26.413Z,1.60
2023-05-05T12:23:23.095Z,1.70
2023-05-05T12:24:19.766Z,1.88
2023-05-05T12:25:17.182Z,1.70
2023-05-05T12:26:28.047Z,1.70
2023-05-05T12:27:26.516Z,1.90
2023-05-05T12:28:23.147Z,2.20
2023-05-05T12:29:29.796Z,1.92
2023-05-05T12:30:26.459Z,1.90
2023-05-05T12:31:23.621Z,2.05
2023-05-05T12:32:22.348Z,2.03
2023-05-05T12:33:20.587Z,1.80
2023-05-05T12:34:18.016Z,1.83
2023-05-05T12:35:15.981Z,1.85
2023-05-05T12:36:13.495Z,1.92
2023-05-05T12:37:10.313Z,1.95
2023-05-05T12:38:07.092Z,1.75
2023-05-05T12:39:07.474Z,1.83
2023-05-05T12:40:06.286Z,1.70
2023-05-05T12:41:03.364Z,1.90
2023-05-05T12:42:04.502Z,1.65
2023-05-05T12:43:01.121Z,1.77
2023-05-05T12:43:59.294Z,1.70
2023-05-05T12:44:55.879Z,1.50
2023-05-05T12:46:18.556Z,2.20
2023-05-05T12:47:29.645Z,1.60
2023-05-05T12:48:26.495Z,1.77
2023-05-05T12:49:23.043Z,1.50
2023-05-05T12:50:32.649Z,1.75
2023-05-05T12:51:29.288Z,1.80
2023-05-05T12:52:40.843Z,1.80
2023-05-05T12:53:37.432Z,1.73
2023-05-05T12:54:33.997Z,1.83
2023-05-05T12:55:37.706Z,1.75
2023-05-05T12:56:45.650Z,1.92
2023-05-05T12:58:01.559Z,1.80
2023-05-05T12:58:58.484Z,1.98
2023-05-05T12:59:57.991Z,1.80
2023-05-05T13:01:10.882Z,1.80
2023-05-05T13:02:08.342Z,1.60
2023-05-05T13:03:06.339Z,2.00
2023-05-05T13:04:08.282Z,1.92
2023-05-05T13:05:05.493Z,2.28
2023-05-05T13:06:03.792Z,2.00
2023-05-05T13:07:12.904Z,1.63
2023-05-05T13:08:09.566Z,1.92
2023-05-05T13:09:07.173Z,1.92
2023-05-05T13:10:10.905Z,1.85
2023-05-05T13:11:07.534Z,1.80
2023-05-05T13:12:04.680Z,1.98
2023-05-05T13:13:01.499Z,1.90
2023-05-05T13:13:58.118Z,1.90
2023-05-05T13:14:54.702Z,1.77
2023-05-05T13:15:51.383Z,2.30
2023-05-05T13:16:48.201Z,1.80
2023-05-05T13:17:44.845Z,1.70
2023-05-05T13:18:48.866Z,1.77